sensor_id;sensor_type;location;lat;lon;timestamp;pressure;altitude;pressure_sealevel;temperature
74539;BMP180;66042;51.090;-115.340;2024-03-23T00:52:06;86482.40;;;-0.10
74539;BMP180;66042;51.090;-115.340;2024-03-23T00:54:33;86482.20;;;-0.30
74539;BMP180;66042;51.090;-115.340;2024-03-23T00:57:00;86481.20;;;-0.40
74539;BMP180;66042;51.090;-115.340;2024-03-23T00:59:26;86477.60;;;-0.44
74539;BMP180;66042;51.090;-115.340;2024-03-23T01:01:55;86477.20;;;-0.60
74539;BMP180;66042;51.090;-115.340;2024-03-23T01:04:22;86478.00;;;-0.70
74539;BMP180;66042;51.090;-115.340;2024-03-23T01:06:49;86478.60;;;-0.90
74539;BMP180;66042;51.090;-115.340;2024-03-23T01:09:16;86482.60;;;-1.00
74539;BMP180;66042;51.090;-115.340;2024-03-23T01:11:43;86488.40;;;-1.02
74539;BMP180;66042;51.090;-115.340;2024-03-23T01:14:10;86479.40;;;-1.20
74539;BMP180;66042;51.090;-115.340;2024-03-23T01:16:37;86487.60;;;-1.26
74539;BMP180;66042;51.090;-115.340;2024-03-23T01:19:04;86489.80;;;-1.30
74539;BMP180;66042;51.090;-115.340;2024-03-23T01:21:31;86496.20;;;-1.40
74539;BMP180;66042;51.090;-115.340;2024-03-23T01:23:59;86494.20;;;-1.60
74539;BMP180;66042;51.090;-115.340;2024-03-23T01:26:26;86495.20;;;-1.70
74539;BMP180;66042;51.090;-115.340;2024-03-23T01:28:52;86492.60;;;-1.70
74539;BMP180;66042;51.090;-115.340;2024-03-23T01:31:19;86491.60;;;-1.80
74539;BMP180;66042;51.090;-115.340;2024-03-23T01:33:47;86500.80;;;-1.90
74539;BMP180;66042;51.090;-115.340;2024-03-23T01:36:14;86500.80;;;-2.00
74539;BMP180;66042;51.090;-115.340;2024-03-23T01:38:41;86497.60;;;-2.10
74539;BMP180;66042;51.090;-115.340;2024-03-23T01:41:07;86500.60;;;-2.20
74539;BMP180;66042;51.090;-115.340;2024-03-23T01:43:34;86504.40;;;-2.26
74539;BMP180;66042;51.090;-115.340;2024-03-23T01:46:02;86504.60;;;-2.30
74539;BMP180;66042;51.090;-115.340;2024-03-23T01:48:29;86504.80;;;-2.40
74539;BMP180;66042;51.090;-115.340;2024-03-23T01:50:56;86503.40;;;-2.40
74539;BMP180;66042;51.090;-115.340;2024-03-23T01:53:23;86508.80;;;-2.50
74539;BMP180;66042;51.090;-115.340;2024-03-23T01:55:51;86501.60;;;-2.58
74539;BMP180;66042;51.090;-115.340;2024-03-23T01:58:18;86500.80;;;-2.60
74539;BMP180;66042;51.090;-115.340;2024-03-23T02:00:45;86497.80;;;-2.70
74539;BMP180;66042;51.090;-115.340;2024-03-23T02:03:26;86494.20;;;-2.74
74539;BMP180;66042;51.090;-115.340;2024-03-23T02:05:57;86499.00;;;-2.80
74539;BMP180;66042;51.090;-115.340;2024-03-23T02:08:24;86500.40;;;-2.90
74539;BMP180;66042;51.090;-115.340;2024-03-23T02:10:51;86494.60;;;-3.00
74539;BMP180;66042;51.090;-115.340;2024-03-23T02:13:19;86496.00;;;-3.10
74539;BMP180;66042;51.090;-115.340;2024-03-23T02:15:46;86493.20;;;-3.10
74539;BMP180;66042;51.090;-115.340;2024-03-23T02:18:13;86500.40;;;-3.20
74539;BMP180;66042;51.090;-115.340;2024-03-23T02:20:40;86493.60;;;-3.20
74539;BMP180;66042;51.090;-115.340;2024-03-23T02:23:17;86493.80;;;-3.20
74539;BMP180;66042;51.090;-115.340;2024-03-23T02:25:45;86493.20;;;-3.22
74539;BMP180;66042;51.090;-115.340;2024-03-23T02:28:12;86495.20;;;-3.30
74539;BMP180;66042;51.090;-115.340;2024-03-23T02:30:39;86495.20;;;-3.48
74539;BMP180;66042;51.090;-115.340;2024-03-23T02:33:06;86494.40;;;-3.50
74539;BMP180;66042;51.090;-115.340;2024-03-23T02:35:34;86493.40;;;-3.60
74539;BMP180;66042;51.090;-115.340;2024-03-23T02:38:01;86493.40;;;-3.60
74539;BMP180;66042;51.090;-115.340;2024-03-23T02:40:29;86494.20;;;-3.60
74539;BMP180;66042;51.090;-115.340;2024-03-23T02:42:56;86491.60;;;-3.60
74539;BMP180;66042;51.090;-115.340;2024-03-23T02:45:22;86490.60;;;-3.60
74539;BMP180;66042;51.090;-115.340;2024-03-23T02:47:50;86493.80;;;-3.70
74539;BMP180;66042;51.090;-115.340;2024-03-23T02:50:22;86496.00;;;-3.70
74539;BMP180;66042;51.090;-115.340;2024-03-23T02:52:49;86494.40;;;-3.74
74539;BMP180;66042;51.090;-115.340;2024-03-23T02:55:18;86496.20;;;-3.80
74539;BMP180;66042;51.090;-115.340;2024-03-23T02:57:44;86493.40;;;-3.80
74539;BMP180;66042;51.090;-115.340;2024-03-23T03:00:12;86490.60;;;-3.90
74539;BMP180;66042;51.090;-115.340;2024-03-23T03:02:39;86491.00;;;-3.90
74539;BMP180;66042;51.090;-115.340;2024-03-23T03:05:06;86488.00;;;-3.90
74539;BMP180;66042;51.090;-115.340;2024-03-23T03:07:35;86492.40;;;-3.90
74539;BMP180;66042;51.090;-115.340;2024-03-23T03:10:01;86491.40;;;-3.90
74539;BMP180;66042;51.090;-115.340;2024-03-23T03:12:28;86494.60;;;-4.00
74539;BMP180;66042;51.090;-115.340;2024-03-23T03:14:56;86492.20;;;-4.00
74539;BMP180;66042;51.090;-115.340;2024-03-23T03:17:23;86489.40;;;-4.06
74539;BMP180;66042;51.090;-115.340;2024-03-23T03:19:50;86489.40;;;-4.10
74539;BMP180;66042;51.090;-115.340;2024-03-23T03:22:23;86488.40;;;-4.20
74539;BMP180;66042;51.090;-115.340;2024-03-23T03:24:50;86488.20;;;-4.20
74539;BMP180;66042;51.090;-115.340;2024-03-23T03:27:17;86488.40;;;-4.20
74539;BMP180;66042;51.090;-115.340;2024-03-23T03:29:44;86488.60;;;-4.20
74539;BMP180;66042;51.090;-115.340;2024-03-23T03:32:11;86492.20;;;-4.20
74539;BMP180;66042;51.090;-115.340;2024-03-23T03:34:38;86489.00;;;-4.20
74539;BMP180;66042;51.090;-115.340;2024-03-23T03:37:06;86482.00;;;-4.20
74539;BMP180;66042;51.090;-115.340;2024-03-23T03:39:33;86485.40;;;-4.22
74539;BMP180;66042;51.090;-115.340;2024-03-23T03:42:00;86485.60;;;-4.30
74539;BMP180;66042;51.090;-115.340;2024-03-23T03:44:28;86478.40;;;-4.30
74539;BMP180;66042;51.090;-115.340;2024-03-23T03:46:55;86479.80;;;-4.40
74539;BMP180;66042;51.090;-115.340;2024-03-23T03:49:22;86480.80;;;-4.40
74539;BMP180;66042;51.090;-115.340;2024-03-23T03:51:49;86480.40;;;-4.40
74539;BMP180;66042;51.090;-115.340;2024-03-23T03:54:16;86485.00;;;-4.40
74539;BMP180;66042;51.090;-115.340;2024-03-23T03:56:43;86480.80;;;-4.44
74539;BMP180;66042;51.090;-115.340;2024-03-23T03:59:10;86476.80;;;-4.44
74539;BMP180;66042;51.090;-115.340;2024-03-23T04:01:37;86479.20;;;-4.50
74539;BMP180;66042;51.090;-115.340;2024-03-23T04:04:04;86475.20;;;-4.50
74539;BMP180;66042;51.090;-115.340;2024-03-23T04:06:31;86472.60;;;-4.50
74539;BMP180;66042;51.090;-115.340;2024-03-23T04:08:59;86467.40;;;-4.50
74539;BMP180;66042;51.090;-115.340;2024-03-23T04:11:26;86472.20;;;-4.50
74539;BMP180;66042;51.090;-115.340;2024-03-23T04:13:53;86473.80;;;-4.54
74539;BMP180;66042;51.090;-115.340;2024-03-23T04:16:35;86468.40;;;-4.60
74539;BMP180;66042;51.090;-115.340;2024-03-23T04:19:02;86468.40;;;-4.56
74539;BMP180;66042;51.090;-115.340;2024-03-23T04:21:30;86470.20;;;-4.56
74539;BMP180;66042;51.090;-115.340;2024-03-23T04:23:57;86468.60;;;-4.50
74539;BMP180;66042;51.090;-115.340;2024-03-23T04:26:25;86472.20;;;-4.54
74539;BMP180;66042;51.090;-115.340;2024-03-23T04:28:53;86464.60;;;-4.60
74539;BMP180;66042;51.090;-115.340;2024-03-23T04:31:20;86466.80;;;-4.60
74539;BMP180;66042;51.090;-115.340;2024-03-23T04:33:47;86463.80;;;-4.60
74539;BMP180;66042;51.090;-115.340;2024-03-23T04:36:15;86466.80;;;-4.60
74539;BMP180;66042;51.090;-115.340;2024-03-23T04:38:42;86463.80;;;-4.60
74539;BMP180;66042;51.090;-115.340;2024-03-23T04:41:09;86468.20;;;-4.70
74539;BMP180;66042;51.090;-115.340;2024-03-23T04:43:36;86472.20;;;-4.70
74539;BMP180;66042;51.090;-115.340;2024-03-23T04:46:03;86465.20;;;-4.74
74539;BMP180;66042;51.090;-115.340;2024-03-23T04:48:30;86462.40;;;-4.78
74539;BMP180;66042;51.090;-115.340;2024-03-23T04:50:58;86463.60;;;-4.80
74539;BMP180;66042;51.090;-115.340;2024-03-23T04:53:25;86464.00;;;-4.90
74539;BMP180;66042;51.090;-115.340;2024-03-23T04:55:58;86458.00;;;-4.90
74539;BMP180;66042;51.090;-115.340;2024-03-23T04:58:28;86457.80;;;-4.86
74539;BMP180;66042;51.090;-115.340;2024-03-23T05:00:59;86457.80;;;-4.90
74539;BMP180;66042;51.090;-115.340;2024-03-23T05:03:26;86457.00;;;-4.90
74539;BMP180;66042;51.090;-115.340;2024-03-23T05:05:53;86453.80;;;-4.88
74539;BMP180;66042;51.090;-115.340;2024-03-23T05:08:20;86452.80;;;-4.90
74539;BMP180;66042;51.090;-115.340;2024-03-23T05:10:48;86451.60;;;-4.90
74539;BMP180;66042;51.090;-115.340;2024-03-23T05:13:15;86449.40;;;-4.98
74539;BMP180;66042;51.090;-115.340;2024-03-23T05:15:42;86448.20;;;-5.00
74539;BMP180;66042;51.090;-115.340;2024-03-23T05:18:09;86442.40;;;-5.00
74539;BMP180;66042;51.090;-115.340;2024-03-23T05:20:36;86435.80;;;-5.00
74539;BMP180;66042;51.090;-115.340;2024-03-23T05:23:05;86432.80;;;-5.00
74539;BMP180;66042;51.090;-115.340;2024-03-23T05:25:32;86431.60;;;-4.96
74539;BMP180;66042;51.090;-115.340;2024-03-23T05:27:59;86429.20;;;-5.00
74539;BMP180;66042;51.090;-115.340;2024-03-23T05:30:26;86426.60;;;-5.00
74539;BMP180;66042;51.090;-115.340;2024-03-23T05:32:53;86423.40;;;-5.00
74539;BMP180;66042;51.090;-115.340;2024-03-23T05:35:20;86417.60;;;-5.00
74539;BMP180;66042;51.090;-115.340;2024-03-23T05:37:47;86417.60;;;-5.00
74539;BMP180;66042;51.090;-115.340;2024-03-23T05:40:14;86420.00;;;-5.00
74539;BMP180;66042;51.090;-115.340;2024-03-23T05:42:42;86416.40;;;-5.00
74539;BMP180;66042;51.090;-115.340;2024-03-23T05:45:09;86410.60;;;-5.00
74539;BMP180;66042;51.090;-115.340;2024-03-23T05:47:37;86411.20;;;-5.00
74539;BMP180;66042;51.090;-115.340;2024-03-23T05:50:05;86410.40;;;-5.00
74539;BMP180;66042;51.090;-115.340;2024-03-23T05:52:32;86411.00;;;-5.00
74539;BMP180;66042;51.090;-115.340;2024-03-23T05:54:59;86402.40;;;-5.00
74539;BMP180;66042;51.090;-115.340;2024-03-23T05:57:26;86402.80;;;-5.00
74539;BMP180;66042;51.090;-115.340;2024-03-23T05:59:53;86398.60;;;-5.00
74539;BMP180;66042;51.090;-115.340;2024-03-23T06:02:20;86400.20;;;-5.00
74539;BMP180;66042;51.090;-115.340;2024-03-23T06:04:47;86396.60;;;-5.00
74539;BMP180;66042;51.090;-115.340;2024-03-23T06:07:15;86396.20;;;-5.00
74539;BMP180;66042;51.090;-115.340;2024-03-23T06:09:42;86398.80;;;-5.04
74539;BMP180;66042;51.090;-115.340;2024-03-23T06:12:09;86396.00;;;-5.10
74539;BMP180;66042;51.090;-115.340;2024-03-23T06:14:36;86397.00;;;-5.10
74539;BMP180;66042;51.090;-115.340;2024-03-23T06:17:03;86400.20;;;-5.10
74539;BMP180;66042;51.090;-115.340;2024-03-23T06:19:31;86393.80;;;-5.20
74539;BMP180;66042;51.090;-115.340;2024-03-23T06:21:58;86387.20;;;-5.20
74539;BMP180;66042;51.090;-115.340;2024-03-23T06:24:25;86384.40;;;-5.20
74539;BMP180;66042;51.090;-115.340;2024-03-23T06:26:52;86388.00;;;-5.20
74539;BMP180;66042;51.090;-115.340;2024-03-23T06:29:20;86386.20;;;-5.28
74539;BMP180;66042;51.090;-115.340;2024-03-23T06:31:54;86382.80;;;-5.20
74539;BMP180;66042;51.090;-115.340;2024-03-23T06:34:21;86386.00;;;-5.22
74539;BMP180;66042;51.090;-115.340;2024-03-23T06:36:49;86382.80;;;-5.30
74539;BMP180;66042;51.090;-115.340;2024-03-23T06:39:19;86376.00;;;-5.30
74539;BMP180;66042;51.090;-115.340;2024-03-23T06:41:53;86375.20;;;-5.30
74539;BMP180;66042;51.090;-115.340;2024-03-23T06:44:21;86367.00;;;-5.34
74539;BMP180;66042;51.090;-115.340;2024-03-23T06:46:48;86374.20;;;-5.30
74539;BMP180;66042;51.090;-115.340;2024-03-23T06:49:15;86373.20;;;-5.30
74539;BMP180;66042;51.090;-115.340;2024-03-23T06:51:42;86373.20;;;-5.32
74539;BMP180;66042;51.090;-115.340;2024-03-23T06:54:09;86377.60;;;-5.30
74539;BMP180;66042;51.090;-115.340;2024-03-23T06:56:36;86377.20;;;-5.40
74539;BMP180;66042;51.090;-115.340;2024-03-23T06:59:03;86373.80;;;-5.40
74539;BMP180;66042;51.090;-115.340;2024-03-23T07:01:30;86367.60;;;-5.40
74539;BMP180;66042;51.090;-115.340;2024-03-23T07:03:58;86359.20;;;-5.50
74539;BMP180;66042;51.090;-115.340;2024-03-23T07:06:25;86358.20;;;-5.50
74539;BMP180;66042;51.090;-115.340;2024-03-23T07:08:53;86351.60;;;-5.50
74539;BMP180;66042;51.090;-115.340;2024-03-23T07:11:21;86352.60;;;-5.56
74539;BMP180;66042;51.090;-115.340;2024-03-23T07:13:50;86351.60;;;-5.56
74539;BMP180;66042;51.090;-115.340;2024-03-23T07:16:18;86348.20;;;-5.60
74539;BMP180;66042;51.090;-115.340;2024-03-23T07:18:45;86345.00;;;-5.50
74539;BMP180;66042;51.090;-115.340;2024-03-23T07:21:12;86343.20;;;-5.54
74539;BMP180;66042;51.090;-115.340;2024-03-23T07:23:43;86341.80;;;-5.60
74539;BMP180;66042;51.090;-115.340;2024-03-23T07:26:13;86338.20;;;-5.60
74539;BMP180;66042;51.090;-115.340;2024-03-23T07:28:40;86338.80;;;-5.58
74539;BMP180;66042;51.090;-115.340;2024-03-23T07:31:13;86332.00;;;-5.58
74539;BMP180;66042;51.090;-115.340;2024-03-23T07:33:46;86328.20;;;-5.60
74539;BMP180;66042;51.090;-115.340;2024-03-23T07:36:13;86326.20;;;-5.60
74539;BMP180;66042;51.090;-115.340;2024-03-23T07:38:46;86325.20;;;-5.60
74539;BMP180;66042;51.090;-115.340;2024-03-23T07:41:20;86325.00;;;-5.60
74539;BMP180;66042;51.090;-115.340;2024-03-23T07:43:48;86323.00;;;-5.60
74539;BMP180;66042;51.090;-115.340;2024-03-23T07:46:16;86322.60;;;-5.62
74539;BMP180;66042;51.090;-115.340;2024-03-23T07:48:45;86316.20;;;-5.70
74539;BMP180;66042;51.090;-115.340;2024-03-23T07:51:21;86319.80;;;-5.70
74539;BMP180;66042;51.090;-115.340;2024-03-23T07:53:49;86318.00;;;-5.70
74539;BMP180;66042;51.090;-115.340;2024-03-23T07:56:17;86310.20;;;-5.70
74539;BMP180;66042;51.090;-115.340;2024-03-23T07:58:48;86310.00;;;-5.70
74539;BMP180;66042;51.090;-115.340;2024-03-23T08:01:16;86303.60;;;-5.70
74539;BMP180;66042;51.090;-115.340;2024-03-23T08:03:45;86302.80;;;-5.70
74539;BMP180;66042;51.090;-115.340;2024-03-23T08:06:17;86303.60;;;-5.78
74539;BMP180;66042;51.090;-115.340;2024-03-23T08:08:49;86296.00;;;-5.78
74539;BMP180;66042;51.090;-115.340;2024-03-23T08:11:17;86293.40;;;-5.80
74539;BMP180;66042;51.090;-115.340;2024-03-23T08:13:45;86290.20;;;-5.80
74539;BMP180;66042;51.090;-115.340;2024-03-23T08:16:13;86287.00;;;-5.88
74539;BMP180;66042;51.090;-115.340;2024-03-23T08:18:40;86281.80;;;-5.84
74539;BMP180;66042;51.090;-115.340;2024-03-23T08:21:07;86278.00;;;-5.82
74539;BMP180;66042;51.090;-115.340;2024-03-23T08:23:35;86278.20;;;-5.90
74539;BMP180;66042;51.090;-115.340;2024-03-23T08:26:11;86277.00;;;-5.90
74539;BMP180;66042;51.090;-115.340;2024-03-23T08:28:38;86272.60;;;-5.90
74539;BMP180;66042;51.090;-115.340;2024-03-23T08:31:08;86270.60;;;-6.00
74539;BMP180;66042;51.090;-115.340;2024-03-23T08:33:36;86263.80;;;-5.96
74539;BMP180;66042;51.090;-115.340;2024-03-23T08:36:05;86263.20;;;-6.00
74539;BMP180;66042;51.090;-115.340;2024-03-23T08:38:33;86256.80;;;-5.98
74539;BMP180;66042;51.090;-115.340;2024-03-23T08:43:38;86254.20;;;-5.98
74539;BMP180;66042;51.090;-115.340;2024-03-23T08:46:14;86253.80;;;-6.00
74539;BMP180;66042;51.090;-115.340;2024-03-23T08:48:47;86249.80;;;-6.00
74539;BMP180;66042;51.090;-115.340;2024-03-23T08:51:17;86246.40;;;-6.08
74539;BMP180;66042;51.090;-115.340;2024-03-23T08:53:44;86243.00;;;-6.10
74539;BMP180;66042;51.090;-115.340;2024-03-23T08:56:12;86239.20;;;-6.10
74539;BMP180;66042;51.090;-115.340;2024-03-23T08:58:39;86233.80;;;-6.10
74539;BMP180;66042;51.090;-115.340;2024-03-23T09:01:12;86223.40;;;-6.10
74539;BMP180;66042;51.090;-115.340;2024-03-23T09:03:42;86221.00;;;-6.10
74539;BMP180;66042;51.090;-115.340;2024-03-23T09:06:15;86219.40;;;-6.10
74539;BMP180;66042;51.090;-115.340;2024-03-23T09:08:42;86217.00;;;-6.10
74539;BMP180;66042;51.090;-115.340;2024-03-23T09:11:12;86211.20;;;-6.10
74539;BMP180;66042;51.090;-115.340;2024-03-23T09:13:40;86209.60;;;-6.10
74539;BMP180;66042;51.090;-115.340;2024-03-23T09:16:08;86208.80;;;-6.10
74539;BMP180;66042;51.090;-115.340;2024-03-23T09:18:37;86200.40;;;-6.10
74539;BMP180;66042;51.090;-115.340;2024-03-23T09:21:11;86198.20;;;-6.12
74539;BMP180;66042;51.090;-115.340;2024-03-23T09:23:40;86197.00;;;-6.10
74539;BMP180;66042;51.090;-115.340;2024-03-23T09:26:07;86196.60;;;-6.20
74539;BMP180;66042;51.090;-115.340;2024-03-23T09:28:34;86201.40;;;-6.20
74539;BMP180;66042;51.090;-115.340;2024-03-23T09:31:05;86198.00;;;-6.20
74539;BMP180;66042;51.090;-115.340;2024-03-23T09:33:35;86198.00;;;-6.20
74539;BMP180;66042;51.090;-115.340;2024-03-23T09:36:06;86203.80;;;-6.20
74539;BMP180;66042;51.090;-115.340;2024-03-23T09:38:33;86196.40;;;-6.20
74539;BMP180;66042;51.090;-115.340;2024-03-23T09:41:06;86196.20;;;-6.28
74539;BMP180;66042;51.090;-115.340;2024-03-23T09:43:34;86194.20;;;-6.30
74539;BMP180;66042;51.090;-115.340;2024-03-23T09:46:02;86187.60;;;-6.30
74539;BMP180;66042;51.090;-115.340;2024-03-23T09:48:30;86182.00;;;-6.30
74539;BMP180;66042;51.090;-115.340;2024-03-23T09:50:58;86175.80;;;-6.30
74539;BMP180;66042;51.090;-115.340;2024-03-23T09:53:25;86179.20;;;-6.30
74539;BMP180;66042;51.090;-115.340;2024-03-23T09:55:52;86181.00;;;-6.22
74539;BMP180;66042;51.090;-115.340;2024-03-23T09:58:19;86178.60;;;-6.20
74539;BMP180;66042;51.090;-115.340;2024-03-23T10:00:47;86172.40;;;-6.20
74539;BMP180;66042;51.090;-115.340;2024-03-23T10:03:14;86168.20;;;-6.20
74539;BMP180;66042;51.090;-115.340;2024-03-23T10:05:41;86165.00;;;-6.10
74539;BMP180;66042;51.090;-115.340;2024-03-23T10:10:45;86156.20;;;-6.10
74539;BMP180;66042;51.090;-115.340;2024-03-23T10:13:28;86147.40;;;-6.00
74539;BMP180;66042;51.090;-115.340;2024-03-23T10:15:58;86146.60;;;-6.00
74539;BMP180;66042;51.090;-115.340;2024-03-23T10:18:26;86145.80;;;-5.90
74539;BMP180;66042;51.090;-115.340;2024-03-23T10:21:09;86135.20;;;-5.90
74539;BMP180;66042;51.090;-115.340;2024-03-23T10:23:39;86132.80;;;-5.90
74539;BMP180;66042;51.090;-115.340;2024-03-23T10:26:25;86128.40;;;-5.90
74539;BMP180;66042;51.090;-115.340;2024-03-23T10:28:58;86124.80;;;-5.90
74539;BMP180;66042;51.090;-115.340;2024-03-23T10:31:31;86119.80;;;-5.90
74539;BMP180;66042;51.090;-115.340;2024-03-23T10:33:58;86121.60;;;-5.84
74539;BMP180;66042;51.090;-115.340;2024-03-23T10:36:27;86108.20;;;-5.80
74539;BMP180;66042;51.090;-115.340;2024-03-23T10:38:55;86114.00;;;-5.80
74539;BMP180;66042;51.090;-115.340;2024-03-23T10:41:21;86112.20;;;-5.80
74539;BMP180;66042;51.090;-115.340;2024-03-23T10:43:49;86116.00;;;-5.80
74539;BMP180;66042;51.090;-115.340;2024-03-23T10:46:16;86111.80;;;-5.80
74539;BMP180;66042;51.090;-115.340;2024-03-23T10:48:44;86114.60;;;-5.70
74539;BMP180;66042;51.090;-115.340;2024-03-23T10:51:12;86117.00;;;-5.70
74539;BMP180;66042;51.090;-115.340;2024-03-23T10:53:41;86116.60;;;-5.70
74539;BMP180;66042;51.090;-115.340;2024-03-23T10:56:09;86113.40;;;-5.80
74539;BMP180;66042;51.090;-115.340;2024-03-23T10:58:38;86116.40;;;-5.80
74539;BMP180;66042;51.090;-115.340;2024-03-23T11:01:05;86112.40;;;-5.78
74539;BMP180;66042;51.090;-115.340;2024-03-23T11:03:37;86114.40;;;-5.80
74539;BMP180;66042;51.090;-115.340;2024-03-23T11:06:08;86121.60;;;-5.80
74539;BMP180;66042;51.090;-115.340;2024-03-23T11:08:40;86121.80;;;-5.80
74539;BMP180;66042;51.090;-115.340;2024-03-23T11:11:21;86116.20;;;-5.80
74539;BMP180;66042;51.090;-115.340;2024-03-23T11:13:51;86117.40;;;-5.80
74539;BMP180;66042;51.090;-115.340;2024-03-23T11:16:26;86113.20;;;-5.80
74539;BMP180;66042;51.090;-115.340;2024-03-23T11:19:35;86111.00;;;-5.88
74539;BMP180;66042;51.090;-115.340;2024-03-23T11:22:05;86114.00;;;-5.90
74539;BMP180;66042;51.090;-115.340;2024-03-23T11:24:34;86110.00;;;-5.90
74539;BMP180;66042;51.090;-115.340;2024-03-23T11:27:01;86107.80;;;-5.90
74539;BMP180;66042;51.090;-115.340;2024-03-23T11:29:30;86103.80;;;-5.90
74539;BMP180;66042;51.090;-115.340;2024-03-23T11:31:57;86105.80;;;-5.90
74539;BMP180;66042;51.090;-115.340;2024-03-23T11:34:25;86105.40;;;-5.90
74539;BMP180;66042;51.090;-115.340;2024-03-23T11:37:04;86102.00;;;-5.90
74539;BMP180;66042;51.090;-115.340;2024-03-23T11:39:33;86096.60;;;-5.90
74539;BMP180;66042;51.090;-115.340;2024-03-23T11:42:00;86099.40;;;-5.90
74539;BMP180;66042;51.090;-115.340;2024-03-23T11:44:27;86096.40;;;-5.90
74539;BMP180;66042;51.090;-115.340;2024-03-23T11:47:07;86090.60;;;-5.90
74539;BMP180;66042;51.090;-115.340;2024-03-23T11:49:37;86090.80;;;-5.90
74539;BMP180;66042;51.090;-115.340;2024-03-23T11:52:07;86088.80;;;-5.90
74539;BMP180;66042;51.090;-115.340;2024-03-23T11:54:35;86086.40;;;-5.90
74539;BMP180;66042;51.090;-115.340;2024-03-23T11:57:07;86089.60;;;-5.90
74539;BMP180;66042;51.090;-115.340;2024-03-23T11:59:40;86082.20;;;-5.90
74539;BMP180;66042;51.090;-115.340;2024-03-23T12:02:12;86088.20;;;-5.90
74539;BMP180;66042;51.090;-115.340;2024-03-23T12:04:42;86087.60;;;-5.90
74539;BMP180;66042;51.090;-115.340;2024-03-23T12:07:11;86084.60;;;-5.88
74539;BMP180;66042;51.090;-115.340;2024-03-23T12:09:39;86078.40;;;-5.90
74539;BMP180;66042;51.090;-115.340;2024-03-23T12:12:14;86077.20;;;-5.90
74539;BMP180;66042;51.090;-115.340;2024-03-23T12:14:44;86079.60;;;-5.90
74539;BMP180;66042;51.090;-115.340;2024-03-23T12:17:15;86074.20;;;-5.90
74539;BMP180;66042;51.090;-115.340;2024-03-23T12:19:43;86073.00;;;-5.90
74539;BMP180;66042;51.090;-115.340;2024-03-23T12:22:12;86076.00;;;-6.00
74539;BMP180;66042;51.090;-115.340;2024-03-23T12:24:39;86073.20;;;-6.00
74539;BMP180;66042;51.090;-115.340;2024-03-23T12:27:11;86072.40;;;-6.00
74539;BMP180;66042;51.090;-115.340;2024-03-23T12:29:38;86068.60;;;-6.00
74539;BMP180;66042;51.090;-115.340;2024-03-23T12:32:06;86066.00;;;-6.00
74539;BMP180;66042;51.090;-115.340;2024-03-23T12:34:33;86062.20;;;-6.00
74539;BMP180;66042;51.090;-115.340;2024-03-23T12:37:00;86058.80;;;-6.00
74539;BMP180;66042;51.090;-115.340;2024-03-23T12:39:27;86054.40;;;-6.00
74539;BMP180;66042;51.090;-115.340;2024-03-23T12:41:55;86055.40;;;-5.94
74539;BMP180;66042;51.090;-115.340;2024-03-23T12:44:22;86055.80;;;-5.90
74539;BMP180;66042;51.090;-115.340;2024-03-23T12:46:49;86054.80;;;-5.94
74539;BMP180;66042;51.090;-115.340;2024-03-23T12:49:16;86050.80;;;-5.90
74539;BMP180;66042;51.090;-115.340;2024-03-23T12:51:55;86051.00;;;-6.00
74539;BMP180;66042;51.090;-115.340;2024-03-23T12:54:23;86047.00;;;-5.98
74539;BMP180;66042;51.090;-115.340;2024-03-23T12:56:50;86046.60;;;-6.00
74539;BMP180;66042;51.090;-115.340;2024-03-23T12:59:17;86040.20;;;-6.04
74539;BMP180;66042;51.090;-115.340;2024-03-23T13:01:45;86038.40;;;-6.00
74539;BMP180;66042;51.090;-115.340;2024-03-23T13:04:13;86042.00;;;-6.00
74539;BMP180;66042;51.090;-115.340;2024-03-23T13:06:41;86040.80;;;-6.00
74539;BMP180;66042;51.090;-115.340;2024-03-23T13:09:08;86039.80;;;-6.04
74539;BMP180;66042;51.090;-115.340;2024-03-23T13:11:35;86041.00;;;-6.10
74539;BMP180;66042;51.090;-115.340;2024-03-23T13:14:02;86039.00;;;-6.00
74539;BMP180;66042;51.090;-115.340;2024-03-23T13:16:30;86034.60;;;-6.04
74539;BMP180;66042;51.090;-115.340;2024-03-23T13:18:57;86028.20;;;-6.00
74539;BMP180;66042;51.090;-115.340;2024-03-23T13:21:24;86026.00;;;-6.06
74539;BMP180;66042;51.090;-115.340;2024-03-23T13:23:51;86028.60;;;-6.10
74539;BMP180;66042;51.090;-115.340;2024-03-23T13:26:18;86030.00;;;-6.10
74539;BMP180;66042;51.090;-115.340;2024-03-23T13:28:45;86031.80;;;-6.10
74539;BMP180;66042;51.090;-115.340;2024-03-23T13:31:12;86035.40;;;-6.20
74539;BMP180;66042;51.090;-115.340;2024-03-23T13:33:39;86033.80;;;-6.20
74539;BMP180;66042;51.090;-115.340;2024-03-23T13:36:08;86031.80;;;-6.30
74539;BMP180;66042;51.090;-115.340;2024-03-23T13:38:35;86031.40;;;-6.28
74539;BMP180;66042;51.090;-115.340;2024-03-23T13:41:02;86026.60;;;-6.22
74539;BMP180;66042;51.090;-115.340;2024-03-23T13:43:31;86024.40;;;-6.20
74539;BMP180;66042;51.090;-115.340;2024-03-23T13:45:59;86025.80;;;-6.30
74539;BMP180;66042;51.090;-115.340;2024-03-23T13:48:28;86023.60;;;-6.30
74539;BMP180;66042;51.090;-115.340;2024-03-23T13:51:03;86025.20;;;-6.26
74539;BMP180;66042;51.090;-115.340;2024-03-23T13:53:31;86018.20;;;-6.28
74539;BMP180;66042;51.090;-115.340;2024-03-23T13:56:02;86012.20;;;-6.30
74539;BMP180;66042;51.090;-115.340;2024-03-23T13:58:29;86013.20;;;-6.30
74539;BMP180;66042;51.090;-115.340;2024-03-23T14:00:59;86008.40;;;-6.30
74539;BMP180;66042;51.090;-115.340;2024-03-23T14:03:26;86000.20;;;-6.30
74539;BMP180;66042;51.090;-115.340;2024-03-23T14:05:58;86000.40;;;-6.30
74539;BMP180;66042;51.090;-115.340;2024-03-23T14:08:28;86001.80;;;-6.30
74539;BMP180;66042;51.090;-115.340;2024-03-23T14:10:58;86000.80;;;-6.30
74539;BMP180;66042;51.090;-115.340;2024-03-23T14:13:26;86001.80;;;-6.30
74539;BMP180;66042;51.090;-115.340;2024-03-23T14:15:58;86002.60;;;-6.30
74539;BMP180;66042;51.090;-115.340;2024-03-23T14:18:25;86001.80;;;-6.30
74539;BMP180;66042;51.090;-115.340;2024-03-23T14:21:01;86003.00;;;-6.30
74539;BMP180;66042;51.090;-115.340;2024-03-23T14:23:31;86002.80;;;-6.30
74539;BMP180;66042;51.090;-115.340;2024-03-23T14:26:01;85996.80;;;-6.30
74539;BMP180;66042;51.090;-115.340;2024-03-23T14:28:28;85991.00;;;-6.20
74539;BMP180;66042;51.090;-115.340;2024-03-23T14:30:56;85989.20;;;-6.20
74539;BMP180;66042;51.090;-115.340;2024-03-23T14:33:23;85989.20;;;-6.20
74539;BMP180;66042;51.090;-115.340;2024-03-23T14:35:55;85990.60;;;-6.20